Wagon Wheel Gap, Colorado
Current Conditions -  °F | °C
As of 5:30 PM on Tuesday 25 Nov 2014 (Local Time) from KRCV Reporting Station
Scattered Clouds Scattered Clouds  
Wind Chill: 26°   Ceiling: Unl
Heat Index: 26°   Visibility: 10mi
Dew Point:   Wind: 0mph
Humidity: 39%   Direction: NA
Pressure: 30.19"   Gusts: NA
Location:  37.6617°N, 106.617°W
Report Text: KRCV 260030Z AUTO 00000KT 10SM SCT060 M03/M16 A3019 RMK AO2 T10351157
Loading
Personal Weather Stations






























Interactive Weather Map New forecast layout! Learn more

10-Day Weather Forecast

Advertisements
Track Severe Weather on mobile